sensor_id;sensor_type;location;lat;lon;timestamp;P1;durP1;ratioP1;P2;durP2;ratioP2
5730;SDS011;2890;51.950;7.668;2023-02-11T00:00:17;52.23;;;29.17;;
5730;SDS011;2890;51.950;7.668;2023-02-11T00:02:43;53.13;;;29.07;;
5730;SDS011;2890;51.950;7.668;2023-02-11T00:05:11;57.07;;;29.30;;
5730;SDS011;2890;51.950;7.668;2023-02-11T00:07:38;42.63;;;27.73;;
5730;SDS011;2890;51.950;7.668;2023-02-11T00:10:04;44.90;;;29.20;;
5730;SDS011;2890;51.950;7.668;2023-02-11T00:12:32;46.93;;;28.80;;
5730;SDS011;2890;51.950;7.668;2023-02-11T00:14:59;50.03;;;29.27;;
5730;SDS011;2890;51.950;7.668;2023-02-11T00:17:25;50.97;;;29.70;;
5730;SDS011;2890;51.950;7.668;2023-02-11T00:19:52;46.87;;;28.30;;
5730;SDS011;2890;51.950;7.668;2023-02-11T00:22:20;47.63;;;28.27;;
5730;SDS011;2890;51.950;7.668;2023-02-11T00:24:46;41.90;;;28.03;;
5730;SDS011;2890;51.950;7.668;2023-02-11T00:27:13;46.67;;;26.50;;
5730;SDS011;2890;51.950;7.668;2023-02-11T00:29:39;44.00;;;28.20;;
5730;SDS011;2890;51.950;7.668;2023-02-11T00:32:06;46.20;;;26.90;;
5730;SDS011;2890;51.950;7.668;2023-02-11T00:34:33;50.97;;;29.40;;
5730;SDS011;2890;51.950;7.668;2023-02-11T00:36:59;48.13;;;28.47;;
5730;SDS011;2890;51.950;7.668;2023-02-11T00:39:27;48.93;;;27.10;;
5730;SDS011;2890;51.950;7.668;2023-02-11T00:41:54;49.03;;;27.03;;
5730;SDS011;2890;51.950;7.668;2023-02-11T00:44:20;46.63;;;27.63;;
5730;SDS011;2890;51.950;7.668;2023-02-11T00:46:47;47.13;;;27.90;;
5730;SDS011;2890;51.950;7.668;2023-02-11T00:49:13;53.53;;;28.43;;
5730;SDS011;2890;51.950;7.668;2023-02-11T00:51:40;42.53;;;26.73;;
5730;SDS011;2890;51.950;7.668;2023-02-11T00:54:07;44.70;;;26.40;;
5730;SDS011;2890;51.950;7.668;2023-02-11T00:56:34;47.80;;;26.90;;
5730;SDS011;2890;51.950;7.668;2023-02-11T00:59:01;39.97;;;25.23;;
5730;SDS011;2890;51.950;7.668;2023-02-11T01:01:27;44.07;;;26.30;;
5730;SDS011;2890;51.950;7.668;2023-02-11T01:03:54;44.87;;;27.37;;
5730;SDS011;2890;51.950;7.668;2023-02-11T01:06:20;41.30;;;25.73;;
5730;SDS011;2890;51.950;7.668;2023-02-11T01:08:47;41.20;;;25.53;;
5730;SDS011;2890;51.950;7.668;2023-02-11T01:11:14;44.30;;;26.03;;
5730;SDS011;2890;51.950;7.668;2023-02-11T01:13:43;44.40;;;25.33;;
5730;SDS011;2890;51.950;7.668;2023-02-11T01:16:10;45.77;;;25.90;;
5730;SDS011;2890;51.950;7.668;2023-02-11T01:18:37;46.20;;;26.20;;
5730;SDS011;2890;51.950;7.668;2023-02-11T01:21:04;43.60;;;26.80;;
5730;SDS011;2890;51.950;7.668;2023-02-11T01:23:31;42.23;;;25.90;;
5730;SDS011;2890;51.950;7.668;2023-02-11T01:25:58;44.27;;;25.40;;
5730;SDS011;2890;51.950;7.668;2023-02-11T01:28:26;44.60;;;26.77;;
5730;SDS011;2890;51.950;7.668;2023-02-11T01:30:55;47.50;;;26.87;;
5730;SDS011;2890;51.950;7.668;2023-02-11T01:33:21;43.80;;;25.93;;
5730;SDS011;2890;51.950;7.668;2023-02-11T01:35:48;43.30;;;25.63;;
5730;SDS011;2890;51.950;7.668;2023-02-11T01:38:16;42.30;;;26.63;;
5730;SDS011;2890;51.950;7.668;2023-02-11T01:40:46;41.37;;;25.17;;
5730;SDS011;2890;51.950;7.668;2023-02-11T01:43:14;47.00;;;25.80;;
5730;SDS011;2890;51.950;7.668;2023-02-11T01:45:45;40.60;;;25.80;;
5730;SDS011;2890;51.950;7.668;2023-02-11T01:48:21;40.37;;;23.97;;
5730;SDS011;2890;51.950;7.668;2023-02-11T01:50:51;43.97;;;25.83;;
5730;SDS011;2890;51.950;7.668;2023-02-11T01:53:20;45.10;;;26.77;;
5730;SDS011;2890;51.950;7.668;2023-02-11T01:56:05;43.97;;;25.00;;
5730;SDS011;2890;51.950;7.668;2023-02-11T01:58:49;39.60;;;24.47;;
5730;SDS011;2890;51.950;7.668;2023-02-11T02:01:18;37.60;;;23.07;;
5730;SDS011;2890;51.950;7.668;2023-02-11T02:03:50;39.80;;;23.93;;
5730;SDS011;2890;51.950;7.668;2023-02-11T02:06:21;40.00;;;24.40;;
5730;SDS011;2890;51.950;7.668;2023-02-11T02:08:51;39.27;;;23.63;;
5730;SDS011;2890;51.950;7.668;2023-02-11T02:11:20;46.43;;;22.97;;
5730;SDS011;2890;51.950;7.668;2023-02-11T02:13:46;43.77;;;23.47;;
5730;SDS011;2890;51.950;7.668;2023-02-11T02:16:14;35.40;;;23.20;;
5730;SDS011;2890;51.950;7.668;2023-02-11T02:18:44;45.07;;;26.00;;
5730;SDS011;2890;51.950;7.668;2023-02-11T02:21:28;39.60;;;24.07;;
5730;SDS011;2890;51.950;7.668;2023-02-11T02:24:14;35.30;;;22.67;;
5730;SDS011;2890;51.950;7.668;2023-02-11T02:30:07;41.83;;;22.67;;
5730;SDS011;2890;51.950;7.668;2023-02-11T02:32:49;42.37;;;22.70;;
5730;SDS011;2890;51.950;7.668;2023-02-11T02:35:27;34.60;;;22.60;;
5730;SDS011;2890;51.950;7.668;2023-02-11T02:37:56;43.37;;;22.17;;
5730;SDS011;2890;51.950;7.668;2023-02-11T02:40:26;32.30;;;20.80;;
5730;SDS011;2890;51.950;7.668;2023-02-11T02:42:54;36.43;;;21.47;;
5730;SDS011;2890;51.950;7.668;2023-02-11T02:45:21;39.27;;;22.33;;
5730;SDS011;2890;51.950;7.668;2023-02-11T02:47:49;35.47;;;21.13;;
5730;SDS011;2890;51.950;7.668;2023-02-11T02:50:16;32.47;;;20.33;;
5730;SDS011;2890;51.950;7.668;2023-02-11T02:52:51;36.60;;;21.00;;
5730;SDS011;2890;51.950;7.668;2023-02-11T02:55:23;39.40;;;19.60;;
5730;SDS011;2890;51.950;7.668;2023-02-11T02:58:04;35.03;;;19.13;;
5730;SDS011;2890;51.950;7.668;2023-02-11T03:00:42;33.63;;;19.43;;
5730;SDS011;2890;51.950;7.668;2023-02-11T03:03:19;30.53;;;19.30;;
5730;SDS011;2890;51.950;7.668;2023-02-11T03:09:11;39.67;;;20.37;;
5730;SDS011;2890;51.950;7.668;2023-02-11T03:11:40;30.77;;;19.30;;
5730;SDS011;2890;51.950;7.668;2023-02-11T03:14:08;29.83;;;18.43;;
5730;SDS011;2890;51.950;7.668;2023-02-11T03:16:36;29.93;;;18.27;;
5730;SDS011;2890;51.950;7.668;2023-02-11T03:19:06;28.40;;;17.97;;
5730;SDS011;2890;51.950;7.668;2023-02-11T03:21:35;32.03;;;18.30;;
5730;SDS011;2890;51.950;7.668;2023-02-11T03:24:05;29.43;;;17.67;;
5730;SDS011;2890;51.950;7.668;2023-02-11T03:26:34;32.53;;;18.33;;
5730;SDS011;2890;51.950;7.668;2023-02-11T03:29:04;32.13;;;18.10;;
5730;SDS011;2890;51.950;7.668;2023-02-11T03:31:36;30.53;;;17.70;;
5730;SDS011;2890;51.950;7.668;2023-02-11T03:34:08;30.37;;;19.23;;
5730;SDS011;2890;51.950;7.668;2023-02-11T03:36:38;29.83;;;18.63;;
5730;SDS011;2890;51.950;7.668;2023-02-11T03:39:10;33.13;;;18.50;;
5730;SDS011;2890;51.950;7.668;2023-02-11T03:41:37;29.30;;;17.37;;
5730;SDS011;2890;51.950;7.668;2023-02-11T03:44:05;32.13;;;19.67;;
5730;SDS011;2890;51.950;7.668;2023-02-11T03:46:33;34.87;;;19.20;;
5730;SDS011;2890;51.950;7.668;2023-02-11T03:49:02;32.57;;;18.30;;
5730;SDS011;2890;51.950;7.668;2023-02-11T03:51:31;35.10;;;18.47;;
5730;SDS011;2890;51.950;7.668;2023-02-11T03:53:59;32.40;;;19.47;;
5730;SDS011;2890;51.950;7.668;2023-02-11T03:56:28;35.77;;;19.47;;
5730;SDS011;2890;51.950;7.668;2023-02-11T03:58:57;34.60;;;19.67;;
5730;SDS011;2890;51.950;7.668;2023-02-11T04:01:23;32.93;;;18.83;;
5730;SDS011;2890;51.950;7.668;2023-02-11T04:03:50;34.37;;;19.53;;
5730;SDS011;2890;51.950;7.668;2023-02-11T04:06:16;32.50;;;19.67;;
5730;SDS011;2890;51.950;7.668;2023-02-11T04:08:44;34.47;;;20.57;;
5730;SDS011;2890;51.950;7.668;2023-02-11T04:11:11;35.80;;;19.40;;
5730;SDS011;2890;51.950;7.668;2023-02-11T04:13:37;28.03;;;18.57;;
5730;SDS011;2890;51.950;7.668;2023-02-11T04:16:04;32.87;;;20.03;;
5730;SDS011;2890;51.950;7.668;2023-02-11T04:18:30;35.70;;;21.13;;
5730;SDS011;2890;51.950;7.668;2023-02-11T04:20:57;37.30;;;20.40;;
5730;SDS011;2890;51.950;7.668;2023-02-11T04:23:23;32.77;;;20.37;;
5730;SDS011;2890;51.950;7.668;2023-02-11T04:25:51;35.90;;;21.00;;
5730;SDS011;2890;51.950;7.668;2023-02-11T04:28:18;33.27;;;21.13;;
5730;SDS011;2890;51.950;7.668;2023-02-11T04:30:44;36.40;;;21.70;;
5730;SDS011;2890;51.950;7.668;2023-02-11T04:33:10;37.40;;;21.07;;
5730;SDS011;2890;51.950;7.668;2023-02-11T04:35:37;30.80;;;20.90;;
5730;SDS011;2890;51.950;7.668;2023-02-11T04:38:03;35.37;;;21.07;;
5730;SDS011;2890;51.950;7.668;2023-02-11T04:40:30;37.53;;;20.90;;
5730;SDS011;2890;51.950;7.668;2023-02-11T04:42:58;37.37;;;21.53;;
5730;SDS011;2890;51.950;7.668;2023-02-11T04:45:24;33.57;;;20.90;;
5730;SDS011;2890;51.950;7.668;2023-02-11T04:47:51;38.07;;;20.60;;
5730;SDS011;2890;51.950;7.668;2023-02-11T04:50:17;36.33;;;20.27;;
5730;SDS011;2890;51.950;7.668;2023-02-11T04:52:44;33.10;;;19.90;;
5730;SDS011;2890;51.950;7.668;2023-02-11T04:55:10;38.30;;;20.87;;
5730;SDS011;2890;51.950;7.668;2023-02-11T04:57:37;33.97;;;20.57;;
5730;SDS011;2890;51.950;7.668;2023-02-11T05:00:05;39.27;;;20.70;;
5730;SDS011;2890;51.950;7.668;2023-02-11T05:02:33;32.27;;;20.93;;
5730;SDS011;2890;51.950;7.668;2023-02-11T05:05:00;37.87;;;20.57;;
5730;SDS011;2890;51.950;7.668;2023-02-11T05:07:27;36.93;;;21.17;;
5730;SDS011;2890;51.950;7.668;2023-02-11T05:09:53;40.13;;;20.23;;
5730;SDS011;2890;51.950;7.668;2023-02-11T05:12:20;34.20;;;20.23;;
5730;SDS011;2890;51.950;7.668;2023-02-11T05:14:46;37.73;;;21.57;;
5730;SDS011;2890;51.950;7.668;2023-02-11T05:17:14;36.87;;;21.33;;
5730;SDS011;2890;51.950;7.668;2023-02-11T05:19:41;33.00;;;20.63;;
5730;SDS011;2890;51.950;7.668;2023-02-11T05:22:07;35.57;;;21.00;;
5730;SDS011;2890;51.950;7.668;2023-02-11T05:24:34;39.17;;;21.37;;
5730;SDS011;2890;51.950;7.668;2023-02-11T05:27:00;40.90;;;21.33;;
5730;SDS011;2890;51.950;7.668;2023-02-11T05:29:27;38.47;;;20.43;;
5730;SDS011;2890;51.950;7.668;2023-02-11T05:31:53;34.37;;;21.43;;
5730;SDS011;2890;51.950;7.668;2023-02-11T05:34:21;38.10;;;21.00;;
5730;SDS011;2890;51.950;7.668;2023-02-11T05:36:48;37.03;;;19.33;;
5730;SDS011;2890;51.950;7.668;2023-02-11T05:39:14;29.60;;;20.00;;
5730;SDS011;2890;51.950;7.668;2023-02-11T05:41:41;35.30;;;21.20;;
5730;SDS011;2890;51.950;7.668;2023-02-11T05:44:07;39.17;;;19.67;;
5730;SDS011;2890;51.950;7.668;2023-02-11T05:46:34;34.70;;;19.77;;
5730;SDS011;2890;51.950;7.668;2023-02-11T05:49:00;33.60;;;19.97;;
5730;SDS011;2890;51.950;7.668;2023-02-11T05:51:28;27.53;;;19.23;;
5730;SDS011;2890;51.950;7.668;2023-02-11T05:53:55;35.87;;;20.67;;
5730;SDS011;2890;51.950;7.668;2023-02-11T05:56:21;31.27;;;19.73;;
5730;SDS011;2890;51.950;7.668;2023-02-11T05:58:48;29.47;;;21.27;;
5730;SDS011;2890;51.950;7.668;2023-02-11T06:01:14;29.27;;;19.90;;
5730;SDS011;2890;51.950;7.668;2023-02-11T06:03:41;36.97;;;20.17;;
5730;SDS011;2890;51.950;7.668;2023-02-11T06:06:08;36.97;;;20.93;;
5730;SDS011;2890;51.950;7.668;2023-02-11T06:08:36;35.13;;;21.17;;
5730;SDS011;2890;51.950;7.668;2023-02-11T06:11:03;35.60;;;21.07;;
5730;SDS011;2890;51.950;7.668;2023-02-11T06:13:29;38.50;;;21.53;;
5730;SDS011;2890;51.950;7.668;2023-02-11T06:15:56;35.87;;;22.73;;
5730;SDS011;2890;51.950;7.668;2023-02-11T06:18:23;38.17;;;21.20;;
5730;SDS011;2890;51.950;7.668;2023-02-11T06:20:50;38.37;;;21.00;;
5730;SDS011;2890;51.950;7.668;2023-02-11T06:23:16;35.50;;;21.30;;
5730;SDS011;2890;51.950;7.668;2023-02-11T06:25:44;40.07;;;22.60;;
5730;SDS011;2890;51.950;7.668;2023-02-11T06:28:11;35.90;;;21.70;;
5730;SDS011;2890;51.950;7.668;2023-02-11T06:30:37;33.13;;;22.67;;
5730;SDS011;2890;51.950;7.668;2023-02-11T06:33:04;40.13;;;23.10;;
5730;SDS011;2890;51.950;7.668;2023-02-11T06:35:30;37.97;;;22.10;;
5730;SDS011;2890;51.950;7.668;2023-02-11T06:37:59;41.60;;;23.97;;
5730;SDS011;2890;51.950;7.668;2023-02-11T06:40:25;39.83;;;22.37;;
5730;SDS011;2890;51.950;7.668;2023-02-11T06:42:53;34.87;;;22.33;;
5730;SDS011;2890;51.950;7.668;2023-02-11T06:45:20;37.70;;;23.33;;
5730;SDS011;2890;51.950;7.668;2023-02-11T06:47:46;36.33;;;22.87;;
5730;SDS011;2890;51.950;7.668;2023-02-11T06:50:13;39.00;;;23.47;;
5730;SDS011;2890;51.950;7.668;2023-02-11T06:52:40;36.07;;;23.20;;
5730;SDS011;2890;51.950;7.668;2023-02-11T06:55:06;39.77;;;23.23;;
5730;SDS011;2890;51.950;7.668;2023-02-11T06:57:33;41.90;;;24.50;;
5730;SDS011;2890;51.950;7.668;2023-02-11T07:00:01;39.57;;;24.77;;
5730;SDS011;2890;51.950;7.668;2023-02-11T07:02:28;44.40;;;23.00;;
5730;SDS011;2890;51.950;7.668;2023-02-11T07:04:54;42.47;;;24.97;;
5730;SDS011;2890;51.950;7.668;2023-02-11T07:07:21;39.57;;;23.97;;
5730;SDS011;2890;51.950;7.668;2023-02-11T07:09:47;46.07;;;23.50;;
5730;SDS011;2890;51.950;7.668;2023-02-11T07:12:14;40.47;;;25.40;;
5730;SDS011;2890;51.950;7.668;2023-02-11T07:14:40;40.07;;;24.53;;
5730;SDS011;2890;51.950;7.668;2023-02-11T07:17:08;48.27;;;25.60;;
5730;SDS011;2890;51.950;7.668;2023-02-11T07:19:34;42.53;;;24.10;;
5730;SDS011;2890;51.950;7.668;2023-02-11T07:22:01;50.17;;;26.27;;
5730;SDS011;2890;51.950;7.668;2023-02-11T07:24:27;44.83;;;24.83;;
5730;SDS011;2890;51.950;7.668;2023-02-11T07:26:54;41.10;;;24.33;;
5730;SDS011;2890;51.950;7.668;2023-02-11T07:29:20;40.87;;;26.63;;
5730;SDS011;2890;51.950;7.668;2023-02-11T07:31:47;42.57;;;25.20;;
5730;SDS011;2890;51.950;7.668;2023-02-11T07:34:15;43.30;;;25.63;;
5730;SDS011;2890;51.950;7.668;2023-02-11T07:36:42;38.30;;;25.10;;
5730;SDS011;2890;51.950;7.668;2023-02-11T07:39:09;44.10;;;25.23;;
5730;SDS011;2890;51.950;7.668;2023-02-11T07:41:35;49.37;;;26.67;;
5730;SDS011;2890;51.950;7.668;2023-02-11T07:44:03;41.53;;;25.47;;
5730;SDS011;2890;51.950;7.668;2023-02-11T07:46:29;46.93;;;25.53;;
5730;SDS011;2890;51.950;7.668;2023-02-11T07:48:56;47.93;;;25.87;;
5730;SDS011;2890;51.950;7.668;2023-02-11T07:51:24;49.90;;;26.30;;
5730;SDS011;2890;51.950;7.668;2023-02-11T07:53:51;49.07;;;26.77;;
5730;SDS011;2890;51.950;7.668;2023-02-11T07:56:19;48.90;;;26.80;;
5730;SDS011;2890;51.950;7.668;2023-02-11T07:58:46;54.10;;;25.97;;
5730;SDS011;2890;51.950;7.668;2023-02-11T08:01:14;47.00;;;26.90;;
5730;SDS011;2890;51.950;7.668;2023-02-11T08:03:42;52.80;;;26.50;;
5730;SDS011;2890;51.950;7.668;2023-02-11T08:06:09;48.20;;;28.23;;
5730;SDS011;2890;51.950;7.668;2023-02-11T08:08:38;46.70;;;25.90;;
5730;SDS011;2890;51.950;7.668;2023-02-11T08:11:05;47.10;;;27.27;;
5730;SDS011;2890;51.950;7.668;2023-02-11T08:13:32;44.13;;;25.83;;
5730;SDS011;2890;51.950;7.668;2023-02-11T08:15:59;48.63;;;26.67;;
5730;SDS011;2890;51.950;7.668;2023-02-11T08:18:26;49.33;;;27.00;;
5730;SDS011;2890;51.950;7.668;2023-02-11T08:20:52;43.67;;;25.40;;
5730;SDS011;2890;51.950;7.668;2023-02-11T08:23:18;56.70;;;27.50;;
5730;SDS011;2890;51.950;7.668;2023-02-11T08:25:46;48.63;;;26.53;;
5730;SDS011;2890;51.950;7.668;2023-02-11T08:28:13;48.03;;;25.70;;
5730;SDS011;2890;51.950;7.668;2023-02-11T08:30:39;50.67;;;27.00;;
5730;SDS011;2890;51.950;7.668;2023-02-11T08:33:06;46.20;;;25.37;;
5730;SDS011;2890;51.950;7.668;2023-02-11T08:35:33;48.17;;;25.70;;
5730;SDS011;2890;51.950;7.668;2023-02-11T08:38:00;51.40;;;27.43;;
5730;SDS011;2890;51.950;7.668;2023-02-11T08:40:26;45.60;;;25.43;;
5730;SDS011;2890;51.950;7.668;2023-02-11T08:42:54;43.87;;;26.80;;
5730;SDS011;2890;51.950;7.668;2023-02-11T08:45:21;49.63;;;26.50;;
5730;SDS011;2890;51.950;7.668;2023-02-11T08:47:47;45.10;;;26.87;;
5730;SDS011;2890;51.950;7.668;2023-02-11T08:50:14;51.57;;;26.10;;
5730;SDS011;2890;51.950;7.668;2023-02-11T08:52:40;45.50;;;24.93;;
5730;SDS011;2890;51.950;7.668;2023-02-11T08:55:07;52.03;;;26.87;;
5730;SDS011;2890;51.950;7.668;2023-02-11T08:57:33;47.67;;;26.07;;
5730;SDS011;2890;51.950;7.668;2023-02-11T09:00:01;44.37;;;25.30;;
5730;SDS011;2890;51.950;7.668;2023-02-11T09:02:28;44.77;;;25.93;;
5730;SDS011;2890;51.950;7.668;2023-02-11T09:04:54;45.03;;;25.83;;
5730;SDS011;2890;51.950;7.668;2023-02-11T09:07:21;48.10;;;26.10;;
5730;SDS011;2890;51.950;7.668;2023-02-11T09:09:47;46.27;;;25.43;;
5730;SDS011;2890;51.950;7.668;2023-02-11T09:12:14;48.83;;;25.83;;
5730;SDS011;2890;51.950;7.668;2023-02-11T09:14:40;48.60;;;26.23;;
5730;SDS011;2890;51.950;7.668;2023-02-11T09:17:08;46.17;;;25.90;;
5730;SDS011;2890;51.950;7.668;2023-02-11T09:19:35;44.90;;;24.93;;
5730;SDS011;2890;51.950;7.668;2023-02-11T09:22:01;52.30;;;26.17;;
5730;SDS011;2890;51.950;7.668;2023-02-11T09:24:28;53.07;;;26.23;;
5730;SDS011;2890;51.950;7.668;2023-02-11T09:26:54;46.63;;;26.30;;
5730;SDS011;2890;51.950;7.668;2023-02-11T09:29:21;47.97;;;26.40;;
5730;SDS011;2890;51.950;7.668;2023-02-11T09:31:47;46.33;;;25.50;;
5730;SDS011;2890;51.950;7.668;2023-02-11T09:34:15;50.90;;;26.97;;
5730;SDS011;2890;51.950;7.668;2023-02-11T09:36:42;51.57;;;27.07;;
5730;SDS011;2890;51.950;7.668;2023-02-11T09:39:10;49.20;;;28.90;;
5730;SDS011;2890;51.950;7.668;2023-02-11T09:41:45;52.77;;;26.67;;
5730;SDS011;2890;51.950;7.668;2023-02-11T09:44:21;46.23;;;26.83;;
5730;SDS011;2890;51.950;7.668;2023-02-11T09:46:52;47.10;;;26.93;;
5730;SDS011;2890;51.950;7.668;2023-02-11T09:49:23;54.93;;;27.37;;
5730;SDS011;2890;51.950;7.668;2023-02-11T09:52:00;49.63;;;26.60;;
5730;SDS011;2890;51.950;7.668;2023-02-11T09:54:30;44.87;;;25.20;;
5730;SDS011;2890;51.950;7.668;2023-02-11T09:57:00;48.83;;;28.30;;
5730;SDS011;2890;51.950;7.668;2023-02-11T09:59:30;49.10;;;26.37;;
5730;SDS011;2890;51.950;7.668;2023-02-11T10:01:58;48.80;;;25.97;;
5730;SDS011;2890;51.950;7.668;2023-02-11T10:04:33;47.87;;;25.73;;
5730;SDS011;2890;51.950;7.668;2023-02-11T10:07:12;51.40;;;26.83;;
5730;SDS011;2890;51.950;7.668;2023-02-11T10:09:50;45.37;;;26.53;;
5730;SDS011;2890;51.950;7.668;2023-02-11T10:12:26;46.07;;;26.60;;
5730;SDS011;2890;51.950;7.668;2023-02-11T10:15:13;48.67;;;26.33;;
5730;SDS011;2890;51.950;7.668;2023-02-11T10:17:51;51.97;;;27.40;;
5730;SDS011;2890;51.950;7.668;2023-02-11T10:20:30;48.57;;;27.60;;
5730;SDS011;2890;51.950;7.668;2023-02-11T10:22:59;48.77;;;27.70;;
5730;SDS011;2890;51.950;7.668;2023-02-11T10:25:34;49.40;;;26.93;;
5730;SDS011;2890;51.950;7.668;2023-02-11T10:28:09;46.33;;;26.80;;
5730;SDS011;2890;51.950;7.668;2023-02-11T10:30:37;48.50;;;27.30;;
5730;SDS011;2890;51.950;7.668;2023-02-11T10:33:10;44.57;;;26.20;;
5730;SDS011;2890;51.950;7.668;2023-02-11T10:35:41;51.80;;;28.33;;
5730;SDS011;2890;51.950;7.668;2023-02-11T10:38:09;50.37;;;28.03;;
5730;SDS011;2890;51.950;7.668;2023-02-11T10:40:36;48.07;;;27.33;;
5730;SDS011;2890;51.950;7.668;2023-02-11T10:43:03;44.17;;;25.47;;
5730;SDS011;2890;51.950;7.668;2023-02-11T10:45:32;44.90;;;27.60;;
5730;SDS011;2890;51.950;7.668;2023-02-11T10:47:59;48.87;;;28.03;;
5730;SDS011;2890;51.950;7.668;2023-02-11T10:50:27;50.73;;;28.03;;
5730;SDS011;2890;51.950;7.668;2023-02-11T10:53:09;50.57;;;27.53;;
5730;SDS011;2890;51.950;7.668;2023-02-11T10:55:50;45.40;;;26.17;;
5730;SDS011;2890;51.950;7.668;2023-02-11T10:58:22;46.67;;;26.30;;
5730;SDS011;2890;51.950;7.668;2023-02-11T11:00:51;55.03;;;27.70;;
5730;SDS011;2890;51.950;7.668;2023-02-11T11:03:19;52.97;;;28.27;;
5730;SDS011;2890;51.950;7.668;2023-02-11T11:05:47;50.17;;;28.17;;
5730;SDS011;2890;51.950;7.668;2023-02-11T11:08:16;48.93;;;28.67;;
5730;SDS011;2890;51.950;7.668;2023-02-11T11:10:44;52.47;;;28.93;;
5730;SDS011;2890;51.950;7.668;2023-02-11T11:18:49;49.97;;;26.93;;
5730;SDS011;2890;51.950;7.668;2023-02-11T11:21:18;44.03;;;26.07;;
5730;SDS011;2890;51.950;7.668;2023-02-11T11:23:53;54.67;;;29.83;;
5730;SDS011;2890;51.950;7.668;2023-02-11T11:26:21;47.90;;;27.77;;
5730;SDS011;2890;51.950;7.668;2023-02-11T11:28:55;48.33;;;27.77;;
5730;SDS011;2890;51.950;7.668;2023-02-11T11:31:24;56.27;;;28.77;;
5730;SDS011;2890;51.950;7.668;2023-02-11T11:33:54;54.63;;;29.53;;
5730;SDS011;2890;51.950;7.668;2023-02-11T11:36:22;54.70;;;29.60;;
5730;SDS011;2890;51.950;7.668;2023-02-11T11:38:57;52.20;;;29.07;;
5730;SDS011;2890;51.950;7.668;2023-02-11T11:41:26;57.00;;;30.37;;
5730;SDS011;2890;51.950;7.668;2023-02-11T11:43:55;51.57;;;28.07;;
5730;SDS011;2890;51.950;7.668;2023-02-11T11:46:27;55.50;;;29.07;;
5730;SDS011;2890;51.950;7.668;2023-02-11T11:48:57;54.57;;;29.80;;
5730;SDS011;2890;51.950;7.668;2023-02-11T11:51:28;55.30;;;29.93;;
5730;SDS011;2890;51.950;7.668;2023-02-11T11:53:58;55.53;;;29.60;;
5730;SDS011;2890;51.950;7.668;2023-02-11T11:56:26;53.33;;;29.50;;
5730;SDS011;2890;51.950;7.668;2023-02-11T11:58:54;52.83;;;28.30;;
5730;SDS011;2890;51.950;7.668;2023-02-11T12:01:27;48.43;;;27.47;;
5730;SDS011;2890;51.950;7.668;2023-02-11T12:04:03;57.33;;;30.43;;
5730;SDS011;2890;51.950;7.668;2023-02-11T12:06:40;49.40;;;27.67;;
5730;SDS011;2890;51.950;7.668;2023-02-11T12:09:15;49.53;;;28.47;;
5730;SDS011;2890;51.950;7.668;2023-02-11T12:11:51;58.77;;;29.17;;
5730;SDS011;2890;51.950;7.668;2023-02-11T12:14:28;51.77;;;28.50;;
5730;SDS011;2890;51.950;7.668;2023-02-11T12:17:00;49.93;;;28.27;;
5730;SDS011;2890;51.950;7.668;2023-02-11T12:19:38;49.63;;;29.33;;
5730;SDS011;2890;51.950;7.668;2023-02-11T12:22:11;52.70;;;28.73;;
5730;SDS011;2890;51.950;7.668;2023-02-11T12:24:54;47.07;;;28.50;;
5730;SDS011;2890;51.950;7.668;2023-02-11T12:27:30;53.40;;;28.97;;
5730;SDS011;2890;51.950;7.668;2023-02-11T12:30:07;49.57;;;29.40;;
5730;SDS011;2890;51.950;7.668;2023-02-11T12:32:43;56.23;;;30.03;;
5730;SDS011;2890;51.950;7.668;2023-02-11T12:35:20;53.10;;;29.03;;
5730;SDS011;2890;51.950;7.668;2023-02-11T12:40:50;47.80;;;27.80;;
5730;SDS011;2890;51.950;7.668;2023-02-11T12:43:24;50.40;;;28.83;;
5730;SDS011;2890;51.950;7.668;2023-02-11T12:45:59;44.90;;;27.83;;
5730;SDS011;2890;51.950;7.668;2023-02-11T12:48:43;48.43;;;28.27;;
5730;SDS011;2890;51.950;7.668;2023-02-11T12:51:20;49.43;;;29.63;;
5730;SDS011;2890;51.950;7.668;2023-02-11T12:54:01;47.33;;;30.00;;
5730;SDS011;2890;51.950;7.668;2023-02-11T12:56:38;51.20;;;28.87;;
5730;SDS011;2890;51.950;7.668;2023-02-11T12:59:09;50.53;;;29.90;;
5730;SDS011;2890;51.950;7.668;2023-02-11T13:01:38;46.87;;;29.47;;
5730;SDS011;2890;51.950;7.668;2023-02-11T13:04:07;51.43;;;29.63;;
5730;SDS011;2890;51.950;7.668;2023-02-11T13:06:39;50.37;;;28.63;;
5730;SDS011;2890;51.950;7.668;2023-02-11T13:09:08;48.93;;;28.53;;
5730;SDS011;2890;51.950;7.668;2023-02-11T13:11:39;47.93;;;28.10;;
5730;SDS011;2890;51.950;7.668;2023-02-11T13:14:10;44.83;;;27.97;;
5730;SDS011;2890;51.950;7.668;2023-02-11T13:16:42;49.07;;;28.70;;
5730;SDS011;2890;51.950;7.668;2023-02-11T13:19:14;45.40;;;28.07;;
5730;SDS011;2890;51.950;7.668;2023-02-11T13:21:50;49.43;;;28.70;;
5730;SDS011;2890;51.950;7.668;2023-02-11T13:24:24;47.10;;;28.73;;
5730;SDS011;2890;51.950;7.668;2023-02-11T13:26:56;45.57;;;28.93;;
5730;SDS011;2890;51.950;7.668;2023-02-11T13:29:28;46.47;;;28.37;;
5730;SDS011;2890;51.950;7.668;2023-02-11T13:32:04;43.57;;;28.27;;
5730;SDS011;2890;51.950;7.668;2023-02-11T13:34:55;44.50;;;27.13;;
5730;SDS011;2890;51.950;7.668;2023-02-11T13:37:23;53.13;;;27.80;;
5730;SDS011;2890;51.950;7.668;2023-02-11T13:39:55;46.00;;;27.10;;
5730;SDS011;2890;51.950;7.668;2023-02-11T13:42:24;45.73;;;26.77;;
5730;SDS011;2890;51.950;7.668;2023-02-11T13:44:51;50.47;;;27.70;;
5730;SDS011;2890;51.950;7.668;2023-02-11T13:47:23;44.40;;;27.83;;
5730;SDS011;2890;51.950;7.668;2023-02-11T13:49:51;41.77;;;25.20;;
5730;SDS011;2890;51.950;7.668;2023-02-11T13:52:21;49.70;;;27.40;;
5730;SDS011;2890;51.950;7.668;2023-02-11T13:54:49;46.50;;;26.80;;
5730;SDS011;2890;51.950;7.668;2023-02-11T13:57:28;41.43;;;26.73;;
5730;SDS011;2890;51.950;7.668;2023-02-11T13:59:59;40.67;;;27.57;;
5730;SDS011;2890;51.950;7.668;2023-02-11T14:02:28;39.37;;;24.90;;
5730;SDS011;2890;51.950;7.668;2023-02-11T14:08:23;40.80;;;25.73;;
5730;SDS011;2890;51.950;7.668;2023-02-11T14:11:08;40.43;;;24.83;;
5730;SDS011;2890;51.950;7.668;2023-02-11T14:16:29;41.67;;;25.27;;
5730;SDS011;2890;51.950;7.668;2023-02-11T14:18:57;39.53;;;24.13;;
5730;SDS011;2890;51.950;7.668;2023-02-11T14:21:32;39.63;;;24.20;;
5730;SDS011;2890;51.950;7.668;2023-02-11T14:27:17;38.13;;;23.73;;
5730;SDS011;2890;51.950;7.668;2023-02-11T14:29:57;37.73;;;25.27;;
5730;SDS011;2890;51.950;7.668;2023-02-11T14:32:38;35.60;;;22.90;;
5730;SDS011;2890;51.950;7.668;2023-02-11T14:35:13;36.60;;;24.20;;
5730;SDS011;2890;51.950;7.668;2023-02-11T14:37:46;41.07;;;24.80;;
5730;SDS011;2890;51.950;7.668;2023-02-11T14:40:19;35.67;;;23.30;;
5730;SDS011;2890;51.950;7.668;2023-02-11T14:42:51;37.97;;;22.53;;
5730;SDS011;2890;51.950;7.668;2023-02-11T14:45:21;35.10;;;21.90;;
5730;SDS011;2890;51.950;7.668;2023-02-11T14:47:50;33.50;;;21.90;;
5730;SDS011;2890;51.950;7.668;2023-02-11T14:50:21;32.33;;;22.13;;
5730;SDS011;2890;51.950;7.668;2023-02-11T14:52:49;32.97;;;22.00;;
5730;SDS011;2890;51.950;7.668;2023-02-11T14:55:19;33.20;;;22.10;;
5730;SDS011;2890;51.950;7.668;2023-02-11T14:58:03;36.87;;;22.00;;
5730;SDS011;2890;51.950;7.668;2023-02-11T15:00:35;31.47;;;20.83;;
5730;SDS011;2890;51.950;7.668;2023-02-11T15:03:01;30.33;;;21.40;;
5730;SDS011;2890;51.950;7.668;2023-02-11T15:05:28;30.10;;;22.37;;
5730;SDS011;2890;51.950;7.668;2023-02-11T15:07:55;29.77;;;20.30;;
5730;SDS011;2890;51.950;7.668;2023-02-11T15:10:25;32.60;;;21.73;;
5730;SDS011;2890;51.950;7.668;2023-02-11T15:12:56;31.33;;;22.57;;
5730;SDS011;2890;51.950;7.668;2023-02-11T15:15:24;34.07;;;21.67;;
5730;SDS011;2890;51.950;7.668;2023-02-11T15:17:57;32.17;;;21.40;;
5730;SDS011;2890;51.950;7.668;2023-02-11T15:20:26;30.30;;;20.23;;
5730;SDS011;2890;51.950;7.668;2023-02-11T15:22:57;33.93;;;21.70;;
5730;SDS011;2890;51.950;7.668;2023-02-11T15:25:25;33.30;;;21.60;;